createdAt,value
2022-12-10T00:00:54.451Z,94.03
2022-12-10T00:02:26.174Z,93.73
2022-12-10T00:03:58.182Z,94.07
2022-12-10T00:05:29.918Z,93.93
2022-12-10T00:07:01.472Z,93.86
2022-12-10T00:08:34.212Z,93.43
2022-12-10T00:10:10.841Z,93.68
2022-12-10T00:11:43.314Z,93.48
2022-12-10T00:13:14.880Z,93.12
2022-12-10T00:14:46.546Z,93.27
2022-12-10T00:16:19.945Z,93.26
2022-12-10T00:17:51.606Z,92.94
2022-12-10T00:19:23.231Z,93.13
2022-12-10T00:20:55.513Z,92.76
2022-12-10T00:22:27.146Z,93.29
2022-12-10T00:23:59.942Z,93.11
2022-12-10T00:25:33.100Z,92.83
2022-12-10T00:27:04.732Z,92.86
2022-12-10T00:28:36.553Z,93.32
2022-12-10T00:30:08.852Z,92.67
2022-12-10T00:31:41.330Z,93.16
2022-12-10T00:33:13.132Z,93.91
2022-12-10T00:34:44.740Z,93.86
2022-12-10T00:36:24.498Z,93.97
2022-12-10T00:37:56.163Z,94.16
2022-12-10T00:39:28.010Z,94.13
2022-12-10T00:41:00.175Z,94.18
2022-12-10T00:42:31.961Z,93.83
2022-12-10T00:44:03.757Z,93.34
2022-12-10T00:45:35.317Z,93.71
2022-12-10T00:47:06.992Z,93.37
2022-12-10T00:48:38.701Z,93.50
2022-12-10T00:50:10.639Z,93.09
2022-12-10T00:51:42.506Z,93.76
2022-12-10T00:53:16.602Z,93.68
2022-12-10T00:54:48.200Z,93.28
2022-12-10T00:56:22.820Z,93.33
2022-12-10T00:57:54.402Z,93.57
2022-12-10T00:59:26.034Z,93.47
2022-12-10T01:01:15.991Z,93.27
2022-12-10T01:02:47.609Z,93.38
2022-12-10T01:04:19.718Z,93.17
2022-12-10T01:05:51.431Z,93.22
2022-12-10T01:07:23.046Z,93.62
2022-12-10T01:08:58.444Z,93.83
2022-12-10T01:10:31.220Z,93.85
2022-12-10T01:12:03.963Z,93.83
2022-12-10T01:13:36.286Z,93.56
2022-12-10T01:15:08.117Z,93.79
2022-12-10T01:16:39.828Z,93.43
2022-12-10T01:18:11.728Z,93.37
2022-12-10T01:19:43.428Z,93.91
2022-12-10T01:21:18.656Z,93.56
2022-12-10T01:22:50.736Z,93.59
2022-12-10T01:24:27.281Z,93.86
2022-12-10T01:26:07.696Z,93.64
2022-12-10T01:27:39.710Z,93.62
2022-12-10T01:29:12.497Z,94.04
2022-12-10T01:30:45.362Z,94.12
2022-12-10T01:32:16.930Z,94.42
2022-12-10T01:33:49.166Z,93.76
2022-12-10T01:35:20.739Z,93.88
2022-12-10T01:36:55.055Z,93.80
2022-12-10T01:38:26.606Z,93.79
2022-12-10T01:39:58.225Z,93.87
2022-12-10T01:41:36.857Z,94.09
2022-12-10T01:43:15.061Z,93.88
2022-12-10T01:44:49.510Z,94.11
2022-12-10T01:46:22.661Z,94.06
2022-12-10T01:47:54.225Z,93.68
2022-12-10T01:49:27.905Z,93.46
2022-12-10T01:50:59.588Z,93.10
2022-12-10T01:52:31.431Z,93.29
2022-12-10T01:54:06.242Z,93.80
2022-12-10T01:55:48.846Z,93.82
2022-12-10T01:57:26.604Z,93.57
2022-12-10T01:58:58.597Z,93.63
2022-12-10T02:00:33.717Z,93.41
2022-12-10T02:02:37.596Z,93.29
2022-12-10T02:04:28.156Z,93.76
2022-12-10T02:06:13.241Z,93.54
2022-12-10T02:07:47.968Z,93.27
2022-12-10T02:09:46.760Z,93.50
2022-12-10T02:11:38.122Z,93.75
2022-12-10T02:13:31.512Z,93.77
2022-12-10T02:15:11.417Z,93.50
2022-12-10T02:16:55.499Z,93.50
2022-12-10T02:18:59.201Z,93.25
2022-12-10T02:20:37.477Z,93.03
2022-12-10T02:22:14.952Z,93.16
2022-12-10T02:23:52.990Z,93.11
2022-12-10T02:25:34.679Z,93.26
2022-12-10T02:27:23.162Z,92.88
2022-12-10T02:29:19.514Z,93.15
2022-12-10T02:30:57.798Z,92.90
2022-12-10T02:32:38.701Z,93.08
2022-12-10T02:34:11.943Z,92.78
2022-12-10T02:35:48.093Z,92.87
2022-12-10T02:37:30.140Z,92.63
2022-12-10T02:39:06.766Z,92.75
2022-12-10T02:40:46.249Z,92.78
2022-12-10T02:42:19.716Z,92.64
2022-12-10T02:43:55.537Z,93.01
2022-12-10T02:45:31.430Z,92.88
2022-12-10T02:47:06.348Z,92.71
2022-12-10T02:48:42.896Z,92.58
2022-12-10T02:50:17.043Z,92.54
2022-12-10T02:51:48.609Z,92.41
2022-12-10T02:53:20.533Z,92.29
2022-12-10T02:54:52.497Z,92.31
2022-12-10T02:56:31.759Z,92.41
2022-12-10T02:58:09.176Z,92.59
2022-12-10T02:59:59.099Z,92.12
2022-12-10T03:01:55.588Z,92.16
2022-12-10T03:03:36.404Z,92.33
2022-12-10T03:05:20.931Z,92.55
2022-12-10T03:07:03.589Z,92.25
2022-12-10T03:08:40.231Z,92.18
2022-12-10T03:10:11.746Z,92.08
2022-12-10T03:11:45.992Z,92.36
2022-12-10T03:13:21.822Z,92.24
2022-12-10T03:14:57.461Z,92.29
2022-12-10T03:16:40.108Z,92.47
2022-12-10T03:18:13.756Z,92.42
2022-12-10T03:19:48.912Z,92.73
2022-12-10T03:21:21.073Z,92.36
2022-12-10T03:22:52.917Z,92.41
2022-12-10T03:24:27.891Z,92.50
2022-12-10T03:25:59.577Z,92.41
2022-12-10T03:27:32.621Z,92.08
2022-12-10T03:29:09.106Z,91.69
2022-12-10T03:30:43.179Z,91.48
2022-12-10T03:32:16.286Z,91.64
2022-12-10T03:33:48.930Z,91.83
2022-12-10T03:35:24.356Z,91.75
2022-12-10T03:36:56.261Z,91.64
2022-12-10T03:38:28.622Z,91.72
2022-12-10T03:40:00.611Z,92.07
2022-12-10T03:41:32.313Z,91.79
2022-12-10T03:43:03.943Z,92.00
2022-12-10T03:44:38.713Z,92.00
2022-12-10T03:46:10.302Z,91.94
2022-12-10T03:47:42.159Z,91.68
2022-12-10T03:49:14.051Z,91.93
2022-12-10T03:50:45.606Z,91.15
2022-12-10T03:52:17.131Z,91.31
2022-12-10T03:53:51.684Z,90.55
2022-12-10T03:55:23.235Z,91.25
2022-12-10T03:56:55.288Z,91.67
2022-12-10T03:58:26.822Z,91.48
2022-12-10T03:59:58.412Z,91.47
2022-12-10T04:01:30.122Z,91.38
2022-12-10T04:03:02.086Z,92.14
2022-12-10T04:04:33.697Z,92.12
2022-12-10T04:06:07.731Z,92.01
2022-12-10T04:07:40.306Z,92.00
2022-12-10T04:09:13.835Z,91.99
2022-12-10T04:10:47.031Z,91.61
2022-12-10T04:12:18.583Z,91.54
2022-12-10T04:14:08.502Z,92.10
2022-12-10T04:15:58.819Z,92.15
2022-12-10T04:17:33.340Z,91.76
2022-12-10T04:19:08.297Z,91.37
2022-12-10T04:20:58.305Z,91.73
2022-12-10T04:22:48.202Z,91.90
2022-12-10T04:24:40.908Z,91.82
2022-12-10T04:26:31.619Z,92.01
2022-12-10T04:28:03.230Z,91.81
2022-12-10T04:29:35.226Z,92.19
2022-12-10T04:31:07.131Z,92.12
2022-12-10T04:32:39.186Z,92.05
2022-12-10T04:34:10.802Z,92.12
2022-12-10T04:35:42.368Z,92.26
2022-12-10T04:37:15.106Z,91.93
2022-12-10T04:38:46.671Z,91.70
2022-12-10T04:40:18.362Z,91.58
2022-12-10T04:41:51.601Z,91.51
2022-12-10T04:43:23.191Z,91.61
2022-12-10T04:44:54.963Z,91.47
2022-12-10T04:46:26.615Z,91.85
2022-12-10T04:47:58.218Z,92.22
2022-12-10T04:49:29.897Z,92.50
2022-12-10T04:51:01.563Z,92.02
2022-12-10T04:52:33.228Z,92.63
2022-12-10T04:54:05.398Z,91.96
2022-12-10T04:55:36.938Z,92.72
2022-12-10T04:57:09.021Z,92.33
2022-12-10T04:58:40.691Z,92.65
2022-12-10T05:00:13.083Z,92.64
2022-12-10T05:01:45.252Z,92.44
2022-12-10T05:03:16.930Z,92.20
2022-12-10T05:04:50.437Z,92.82
2022-12-10T05:06:22.296Z,92.09
2022-12-10T05:07:53.921Z,91.65
2022-12-10T05:09:25.489Z,91.57
2022-12-10T05:11:04.701Z,91.94
2022-12-10T05:12:37.271Z,92.09
2022-12-10T05:14:11.467Z,91.77
2022-12-10T05:15:43.061Z,91.38
2022-12-10T05:17:14.667Z,91.78
2022-12-10T05:18:46.552Z,91.39
2022-12-10T05:20:18.137Z,91.11
2022-12-10T05:22:08.789Z,91.18
2022-12-10T05:23:43.600Z,90.92
2022-12-10T05:25:15.256Z,90.74
2022-12-10T05:26:47.493Z,90.71
2022-12-10T05:28:23.277Z,90.90
2022-12-10T05:29:54.836Z,91.07
2022-12-10T05:31:29.141Z,90.78
2022-12-10T05:33:00.726Z,90.69
2022-12-10T05:34:32.879Z,90.55
2022-12-10T05:36:04.931Z,91.00
2022-12-10T05:37:36.599Z,90.94
2022-12-10T05:39:08.657Z,91.13
2022-12-10T05:40:40.260Z,90.75
2022-12-10T05:42:11.895Z,90.70
2022-12-10T05:43:44.357Z,90.87
2022-12-10T05:45:16.171Z,91.41
2022-12-10T05:46:47.732Z,91.14
2022-12-10T05:48:19.390Z,91.38
2022-12-10T05:49:52.684Z,90.92
2022-12-10T05:51:30.357Z,89.98
2022-12-10T05:53:01.916Z,90.34
2022-12-10T05:54:34.040Z,90.64
2022-12-10T05:56:11.333Z,90.43
2022-12-10T05:57:42.969Z,90.79
2022-12-10T05:59:16.971Z,90.71
2022-12-10T06:00:48.715Z,90.48
2022-12-10T06:02:20.308Z,90.54
2022-12-10T06:03:53.251Z,90.22
2022-12-10T06:05:24.848Z,89.94
2022-12-10T06:06:56.400Z,90.10
2022-12-10T06:08:27.938Z,90.14
2022-12-10T06:09:59.593Z,90.25
2022-12-10T06:11:31.346Z,90.54
2022-12-10T06:13:04.616Z,90.28
2022-12-10T06:14:36.315Z,90.02
2022-12-10T06:16:10.068Z,90.27
2022-12-10T06:17:41.694Z,90.11
2022-12-10T06:19:13.611Z,90.14
2022-12-10T06:20:47.520Z,90.52
2022-12-10T06:22:19.317Z,90.78
2022-12-10T06:23:52.574Z,91.05
2022-12-10T06:25:24.305Z,90.75
2022-12-10T06:26:56.190Z,90.72
2022-12-10T06:28:28.261Z,90.66
2022-12-10T06:29:59.952Z,90.64
2022-12-10T06:31:31.619Z,90.61
2022-12-10T06:33:03.367Z,90.31
2022-12-10T06:34:37.590Z,90.58
2022-12-10T06:36:15.826Z,90.89
2022-12-10T06:37:47.360Z,90.83
2022-12-10T06:39:18.908Z,90.65
2022-12-10T06:40:50.807Z,90.32
2022-12-10T06:42:23.070Z,90.20
2022-12-10T06:43:59.160Z,89.52
2022-12-10T06:45:30.765Z,89.85
2022-12-10T06:47:02.438Z,89.34
2022-12-10T06:48:34.436Z,89.77
2022-12-10T06:50:06.813Z,89.78
2022-12-10T06:51:39.631Z,89.69
2022-12-10T06:53:11.310Z,90.41
2022-12-10T06:54:43.039Z,89.23
2022-12-10T06:56:17.968Z,89.60
2022-12-10T06:57:53.286Z,89.54
2022-12-10T06:59:25.087Z,88.57
2022-12-10T07:01:04.933Z,88.74
2022-12-10T07:02:36.643Z,88.59
2022-12-10T07:04:09.457Z,88.95
2022-12-10T07:05:41.191Z,89.48
2022-12-10T07:07:12.798Z,89.28
2022-12-10T07:08:44.537Z,89.61
2022-12-10T07:10:16.330Z,89.37
2022-12-10T07:11:47.836Z,89.46
2022-12-10T07:13:19.430Z,89.31
2022-12-10T07:14:50.937Z,89.21
2022-12-10T07:16:26.441Z,88.69
2022-12-10T07:17:58.182Z,89.34
2022-12-10T07:19:29.723Z,89.66
2022-12-10T07:21:01.417Z,89.47
2022-12-10T07:22:33.012Z,88.63
2022-12-10T07:24:07.564Z,88.70
2022-12-10T07:25:39.103Z,88.64
2022-12-10T07:27:10.827Z,88.44
2022-12-10T07:28:52.150Z,88.46
2022-12-10T07:30:24.903Z,88.42
2022-12-10T07:31:56.587Z,88.17
2022-12-10T07:33:28.105Z,88.68
2022-12-10T07:34:59.648Z,88.89
2022-12-10T07:36:31.299Z,88.23
2022-12-10T07:38:02.847Z,88.14
2022-12-10T07:39:34.587Z,87.97
2022-12-10T07:41:10.927Z,88.17
2022-12-10T07:42:42.685Z,87.95
2022-12-10T07:44:14.492Z,88.19
2022-12-10T07:45:46.234Z,87.80
2022-12-10T07:47:18.159Z,88.22
2022-12-10T07:48:50.393Z,88.21
2022-12-10T07:50:22.283Z,86.93
2022-12-10T07:51:54.068Z,87.29
2022-12-10T07:53:25.749Z,88.05
2022-12-10T07:54:57.625Z,87.37
2022-12-10T07:56:29.437Z,87.47
2022-12-10T07:58:01.207Z,87.34
2022-12-10T07:59:33.019Z,87.36
2022-12-10T08:01:10.036Z,86.86
2022-12-10T08:02:41.889Z,86.38
2022-12-10T08:04:13.594Z,86.76
2022-12-10T08:05:45.417Z,86.31
2022-12-10T08:07:17.035Z,86.07
2022-12-10T08:08:49.946Z,87.04
2022-12-10T08:10:21.562Z,85.90
2022-12-10T08:11:54.260Z,85.90
2022-12-10T08:13:26.022Z,86.16
2022-12-10T08:14:57.661Z,86.16
2022-12-10T08:16:32.035Z,85.88
2022-12-10T08:18:03.908Z,86.24
2022-12-10T08:19:35.644Z,86.14
2022-12-10T08:21:09.362Z,85.12
2022-12-10T08:22:41.156Z,84.73
2022-12-10T08:24:12.796Z,85.37
2022-12-10T08:25:44.522Z,85.42
2022-12-10T08:27:16.138Z,84.99
2022-12-10T08:28:49.881Z,85.36
2022-12-10T08:30:22.479Z,85.38
2022-12-10T08:31:54.156Z,84.80
2022-12-10T08:33:26.459Z,84.98
2022-12-10T08:34:58.236Z,85.51
2022-12-10T08:36:31.378Z,84.68
2022-12-10T08:38:02.969Z,84.82
2022-12-10T08:39:34.504Z,85.16
2022-12-10T08:41:12.033Z,85.31
2022-12-10T08:42:43.715Z,84.17
2022-12-10T08:44:15.362Z,84.61
2022-12-10T08:45:47.089Z,84.59
2022-12-10T08:47:18.703Z,84.38
2022-12-10T08:48:50.289Z,84.03
2022-12-10T08:50:21.988Z,83.20
2022-12-10T08:51:53.687Z,83.50
2022-12-10T08:53:25.448Z,83.05
2022-12-10T08:54:57.074Z,82.86
2022-12-10T08:56:28.937Z,83.23
2022-12-10T08:58:00.587Z,83.58
2022-12-10T08:59:32.275Z,83.72
2022-12-10T09:01:12.351Z,83.88
2022-12-10T09:02:44.247Z,83.85
2022-12-10T09:04:16.809Z,83.54
2022-12-10T09:05:48.601Z,82.76
2022-12-10T09:07:20.253Z,83.26
2022-12-10T09:08:53.806Z,83.79
2022-12-10T09:10:25.373Z,83.98
2022-12-10T09:11:56.988Z,84.02
2022-12-10T09:13:29.426Z,83.42
2022-12-10T09:15:01.234Z,84.19
2022-12-10T09:16:37.440Z,84.11
2022-12-10T09:18:09.059Z,82.99
2022-12-10T09:19:40.607Z,83.34
2022-12-10T09:21:14.767Z,84.32
2022-12-10T09:22:46.387Z,84.05
2022-12-10T09:24:17.968Z,84.08
2022-12-10T09:25:49.857Z,83.62
2022-12-10T09:27:21.658Z,83.26
2022-12-10T09:28:54.069Z,83.22
2022-12-10T09:30:25.727Z,82.35
2022-12-10T09:31:57.500Z,82.96
2022-12-10T09:33:30.057Z,82.61
2022-12-10T09:35:01.755Z,82.02
2022-12-10T09:36:34.201Z,81.96
2022-12-10T09:38:06.072Z,82.17
2022-12-10T09:39:37.662Z,82.23
2022-12-10T09:41:38.180Z,81.66
2022-12-10T09:43:31.410Z,81.28
2022-12-10T09:45:26.196Z,81.70
2022-12-10T09:46:59.969Z,82.56
2022-12-10T09:48:50.420Z,82.37
2022-12-10T09:50:31.627Z,80.85
2022-12-10T09:52:06.713Z,81.33
2022-12-10T09:53:39.894Z,81.13
2022-12-10T09:55:18.702Z,80.55
2022-12-10T09:56:56.312Z,81.12
2022-12-10T09:58:30.311Z,80.43
2022-12-10T10:00:30.492Z,80.20
2022-12-10T10:02:30.431Z,81.25
2022-12-10T10:04:04.482Z,79.36
2022-12-10T10:05:40.816Z,78.57
2022-12-10T10:07:31.465Z,79.83
2022-12-10T10:09:04.440Z,78.92
2022-12-10T10:10:39.337Z,78.79
2022-12-10T10:12:18.118Z,79.35
2022-12-10T10:13:56.187Z,79.45
2022-12-10T10:15:45.402Z,78.71
2022-12-10T10:17:32.667Z,79.46
2022-12-10T10:19:16.171Z,78.99
2022-12-10T10:20:48.033Z,79.90
2022-12-10T10:22:19.842Z,78.33
2022-12-10T10:23:52.377Z,77.62
2022-12-10T10:25:28.090Z,78.72
2022-12-10T10:27:11.950Z,78.69
2022-12-10T10:28:47.331Z,78.00
2022-12-10T10:30:23.244Z,77.86
2022-12-10T10:32:13.944Z,78.66
2022-12-10T10:33:58.145Z,78.32
2022-12-10T10:35:34.799Z,78.85
2022-12-10T10:37:06.691Z,79.06
2022-12-10T10:38:38.415Z,79.16
2022-12-10T10:40:24.596Z,79.29
2022-12-10T10:41:58.678Z,79.15
2022-12-10T10:43:42.260Z,79.37
2022-12-10T10:45:37.832Z,78.72
2022-12-10T10:47:34.758Z,77.68
2022-12-10T10:49:26.588Z,78.33
2022-12-10T10:51:21.189Z,77.76
2022-12-10T10:52:52.823Z,78.68
2022-12-10T10:54:42.080Z,78.28
2022-12-10T10:56:21.959Z,77.98
2022-12-10T10:57:53.769Z,78.57
2022-12-10T10:59:34.771Z,78.64
2022-12-10T11:01:09.711Z,78.08
2022-12-10T11:02:44.757Z,78.06
2022-12-10T11:04:19.109Z,77.23
2022-12-10T11:05:50.711Z,77.77
2022-12-10T11:07:26.213Z,78.04
2022-12-10T11:08:59.589Z,78.02
2022-12-10T11:10:32.235Z,77.66
2022-12-10T11:12:21.924Z,77.42
2022-12-10T11:13:53.643Z,77.47
2022-12-10T11:15:25.348Z,78.50
2022-12-10T11:17:13.672Z,77.96
2022-12-10T11:19:03.823Z,77.59
2022-12-10T11:20:42.027Z,77.27
2022-12-10T11:22:34.133Z,77.48
2022-12-10T11:24:12.404Z,76.69
2022-12-10T11:26:08.620Z,76.85
2022-12-10T11:27:58.813Z,77.43
2022-12-10T11:29:49.590Z,76.84
2022-12-10T11:31:51.681Z,76.74
2022-12-10T11:33:42.997Z,75.96
2022-12-10T11:35:17.419Z,76.22
2022-12-10T11:37:31.427Z,76.32
2022-12-10T11:39:32.252Z,76.88
2022-12-10T11:41:31.283Z,75.76
2022-12-10T11:43:26.464Z,74.79
2022-12-10T11:45:10.218Z,75.51
2022-12-10T11:46:55.054Z,74.16
2022-12-10T11:48:35.472Z,75.60
2022-12-10T11:50:20.767Z,75.52
2022-12-10T11:52:12.785Z,75.57
2022-12-10T11:53:56.324Z,75.77
2022-12-10T11:56:06.176Z,74.45
2022-12-10T11:58:15.473Z,74.90
2022-12-10T12:00:15.871Z,74.36
2022-12-10T12:02:00.196Z,73.85
2022-12-10T12:04:09.465Z,74.72
2022-12-10T12:05:53.103Z,73.59
2022-12-10T12:07:53.221Z,75.07
2022-12-10T12:09:36.811Z,75.33
2022-12-10T12:11:28.805Z,74.68
2022-12-10T12:13:11.176Z,74.91
2022-12-10T12:14:58.315Z,74.38
2022-12-10T12:16:32.670Z,74.09
2022-12-10T12:18:23.107Z,73.52
2022-12-10T12:20:15.857Z,73.58
2022-12-10T12:21:51.016Z,72.82
2022-12-10T12:23:32.220Z,73.63
2022-12-10T12:25:17.147Z,73.15
2022-12-10T12:27:02.577Z,74.46
2022-12-10T12:29:07.919Z,74.48
2022-12-10T12:30:42.659Z,74.31
2022-12-10T12:32:20.428Z,74.49
2022-12-10T12:34:06.411Z,75.82
2022-12-10T12:35:51.095Z,75.13
2022-12-10T12:37:31.043Z,75.01
2022-12-10T12:39:16.940Z,74.89
2022-12-10T12:41:04.435Z,75.60
2022-12-10T12:42:45.221Z,74.46
2022-12-10T12:44:44.741Z,72.89
2022-12-10T12:46:34.547Z,72.83
2022-12-10T12:48:31.695Z,72.61
2022-12-10T12:50:06.209Z,71.70
2022-12-10T12:51:44.725Z,72.76
2022-12-10T12:53:20.603Z,71.87
2022-12-10T12:54:55.069Z,71.69
2022-12-10T12:56:38.290Z,71.50
2022-12-10T12:58:16.494Z,70.11
2022-12-10T13:00:11.266Z,69.80
2022-12-10T13:01:55.028Z,69.76
2022-12-10T13:03:41.090Z,70.11
2022-12-10T13:05:19.483Z,70.69
2022-12-10T13:07:27.997Z,71.24
2022-12-10T13:09:25.651Z,71.05
2022-12-10T13:11:15.249Z,69.03
2022-12-10T13:12:46.847Z,69.32
2022-12-10T13:14:34.827Z,70.49
2022-12-10T13:16:46.209Z,71.30
2022-12-10T13:18:21.756Z,72.22
2022-12-10T13:19:55.046Z,72.43
2022-12-10T13:21:31.033Z,72.69
2022-12-10T13:23:05.067Z,72.99
2022-12-10T13:24:36.650Z,72.55
2022-12-10T13:26:31.929Z,73.47
2022-12-10T13:28:22.614Z,72.92
2022-12-10T13:30:26.472Z,74.36
2022-12-10T13:32:17.917Z,74.14
2022-12-10T13:34:05.352Z,74.40
2022-12-10T13:35:49.610Z,74.83
2022-12-10T13:37:32.402Z,74.13
2022-12-10T13:39:03.960Z,74.12
2022-12-10T13:41:01.301Z,74.61
2022-12-10T13:42:54.086Z,74.63
2022-12-10T13:44:49.128Z,73.93
2022-12-10T13:46:35.984Z,74.66
2022-12-10T13:48:36.313Z,74.74
2022-12-10T13:50:41.336Z,74.88
2022-12-10T13:52:26.775Z,75.54
2022-12-10T13:53:58.391Z,75.07
2022-12-10T13:55:59.018Z,75.84
2022-12-10T13:57:47.143Z,75.98
2022-12-10T13:59:30.394Z,76.39
2022-12-10T14:01:09.242Z,77.17
2022-12-10T14:03:18.386Z,75.22
2022-12-10T14:05:08.566Z,75.24
2022-12-10T14:06:41.200Z,75.49
2022-12-10T14:08:19.512Z,76.26
2022-12-10T14:09:54.894Z,76.57
2022-12-10T14:11:37.146Z,76.25
2022-12-10T14:13:14.417Z,76.61
2022-12-10T14:14:55.889Z,76.92
2022-12-10T14:16:32.130Z,76.61
2022-12-10T14:18:16.277Z,77.66
2022-12-10T14:19:51.590Z,76.63
2022-12-10T14:21:25.490Z,77.11
2022-12-10T14:23:17.724Z,76.64
2022-12-10T14:24:51.295Z,76.55
2022-12-10T14:26:29.288Z,76.51
2022-12-10T14:28:02.871Z,77.19
2022-12-10T14:29:34.611Z,75.74
2022-12-10T14:31:12.348Z,76.68
2022-12-10T14:32:44.850Z,76.61
2022-12-10T14:34:22.291Z,76.43
2022-12-10T14:35:54.568Z,74.86
2022-12-10T14:37:30.555Z,74.66
2022-12-10T14:39:02.905Z,75.84
2022-12-10T14:40:42.809Z,75.71
2022-12-10T14:42:17.250Z,75.86
2022-12-10T14:43:49.596Z,76.58
2022-12-10T14:45:21.256Z,76.25
2022-12-10T14:46:53.204Z,75.20
2022-12-10T14:48:25.817Z,75.81
2022-12-10T14:49:57.471Z,76.38
2022-12-10T14:51:34.359Z,76.21
2022-12-10T14:53:12.703Z,76.45
2022-12-10T14:54:45.142Z,76.67
2022-12-10T14:56:25.640Z,76.62
2022-12-10T14:58:04.173Z,75.70
2022-12-10T14:59:52.120Z,76.77
2022-12-10T15:01:28.422Z,76.59
2022-12-10T15:03:09.550Z,76.81
2022-12-10T15:04:44.807Z,76.69
2022-12-10T15:06:20.013Z,76.64
2022-12-10T15:08:16.070Z,77.38
2022-12-10T15:09:49.715Z,77.30
2022-12-10T15:11:21.566Z,77.31
2022-12-10T15:12:54.895Z,77.20
2022-12-10T15:14:29.321Z,77.14
2022-12-10T15:16:02.038Z,77.52
2022-12-10T15:17:43.502Z,77.13
2022-12-10T15:19:25.449Z,77.71
2022-12-10T15:21:14.789Z,77.92
2022-12-10T15:22:46.540Z,77.54
2022-12-10T15:24:21.258Z,78.16
2022-12-10T15:25:58.590Z,77.93
2022-12-10T15:27:30.406Z,77.96
2022-12-10T15:29:27.785Z,77.90
2022-12-10T15:31:13.893Z,77.63
2022-12-10T15:32:49.689Z,78.02
2022-12-10T15:34:21.564Z,78.15
2022-12-10T15:35:55.831Z,77.82
2022-12-10T15:37:34.631Z,78.41
2022-12-10T15:39:17.675Z,78.54
2022-12-10T15:40:49.349Z,78.13
2022-12-10T15:42:38.370Z,79.00
2022-12-10T15:44:31.426Z,78.27
2022-12-10T15:46:06.035Z,78.24
2022-12-10T15:47:39.456Z,77.08
2022-12-10T15:49:11.123Z,77.88
2022-12-10T15:50:46.178Z,78.36
2022-12-10T15:52:19.305Z,78.39
2022-12-10T15:53:50.935Z,78.23
2022-12-10T15:55:22.765Z,78.16
2022-12-10T15:56:54.342Z,78.19
2022-12-10T15:58:27.008Z,78.62
2022-12-10T16:00:04.092Z,78.64
2022-12-10T16:01:43.358Z,78.71
2022-12-10T16:03:17.572Z,78.68
2022-12-10T16:04:49.212Z,79.37
2022-12-10T16:06:20.863Z,79.59
2022-12-10T16:07:54.791Z,79.04
2022-12-10T16:09:26.467Z,79.15
2022-12-10T16:11:01.768Z,79.41
2022-12-10T16:12:40.145Z,79.28
2022-12-10T16:14:14.179Z,78.71
2022-12-10T16:15:59.793Z,78.52
2022-12-10T16:17:31.724Z,79.67
2022-12-10T16:19:11.753Z,79.34
2022-12-10T16:20:43.732Z,79.37
2022-12-10T16:22:15.336Z,79.82
2022-12-10T16:23:49.288Z,79.85
2022-12-10T16:25:22.403Z,79.33
2022-12-10T16:26:53.988Z,79.58
2022-12-10T16:28:26.922Z,79.35
2022-12-10T16:29:58.598Z,78.77
2022-12-10T16:31:30.947Z,78.67
2022-12-10T16:33:03.648Z,79.58
2022-12-10T16:34:35.240Z,79.19
2022-12-10T16:36:07.029Z,79.45
2022-12-10T16:37:38.665Z,79.57
2022-12-10T16:39:10.372Z,79.51
2022-12-10T16:40:43.599Z,79.79
2022-12-10T16:42:15.269Z,78.83
2022-12-10T16:43:47.106Z,78.44
2022-12-10T16:45:34.442Z,78.35
2022-12-10T16:47:13.045Z,78.50
2022-12-10T16:48:44.688Z,78.70
2022-12-10T16:50:17.284Z,79.28
2022-12-10T16:51:48.861Z,78.74
2022-12-10T16:53:27.340Z,78.60
2022-12-10T16:54:58.898Z,78.54
2022-12-10T16:56:31.234Z,78.57
2022-12-10T16:58:03.129Z,78.17
2022-12-10T16:59:34.726Z,77.52
2022-12-10T17:01:17.020Z,78.00
2022-12-10T17:02:49.554Z,78.57
2022-12-10T17:04:21.192Z,78.51
2022-12-10T17:05:58.066Z,78.70
2022-12-10T17:07:29.620Z,79.17
2022-12-10T17:09:01.212Z,77.95
2022-12-10T17:10:51.703Z,78.67
2022-12-10T17:12:24.153Z,79.20
2022-12-10T17:13:55.783Z,78.64
2022-12-10T17:15:27.644Z,78.75
2022-12-10T17:17:01.240Z,78.80
2022-12-10T17:18:34.875Z,78.24
2022-12-10T17:20:18.645Z,78.07
2022-12-10T17:21:50.989Z,78.73
2022-12-10T17:23:22.898Z,78.71
2022-12-10T17:24:54.491Z,78.93
2022-12-10T17:26:31.617Z,79.11
2022-12-10T17:28:03.445Z,79.30
2022-12-10T17:29:39.459Z,79.31
2022-12-10T17:31:11.096Z,79.83
2022-12-10T17:32:43.741Z,79.25
2022-12-10T17:34:16.230Z,79.77
2022-12-10T17:35:48.678Z,79.54
2022-12-10T17:37:21.194Z,79.60
2022-12-10T17:38:52.786Z,79.77
2022-12-10T17:40:24.629Z,80.03
2022-12-10T17:41:56.449Z,79.91
2022-12-10T17:43:28.034Z,80.03
2022-12-10T17:44:59.691Z,80.38
2022-12-10T17:46:32.606Z,80.42
2022-12-10T17:48:06.881Z,79.82
2022-12-10T17:49:38.612Z,79.38
2022-12-10T17:51:13.117Z,79.59
2022-12-10T17:52:44.716Z,80.41
2022-12-10T17:54:16.323Z,80.08
2022-12-10T17:55:58.531Z,80.11
2022-12-10T17:57:30.176Z,80.00
2022-12-10T17:59:01.749Z,79.82
2022-12-10T18:00:36.247Z,79.49
2022-12-10T18:02:09.016Z,79.83
2022-12-10T18:03:41.084Z,79.38
2022-12-10T18:05:12.689Z,78.83
2022-12-10T18:06:44.289Z,79.15
2022-12-10T18:08:23.650Z,79.63
2022-12-10T18:09:55.588Z,79.12
2022-12-10T18:11:30.683Z,78.57
2022-12-10T18:13:02.364Z,78.49
2022-12-10T18:14:34.000Z,78.58
2022-12-10T18:16:12.545Z,78.89
2022-12-10T18:17:46.292Z,78.21
2022-12-10T18:19:18.327Z,78.72
2022-12-10T18:20:50.008Z,78.67
2022-12-10T18:22:21.692Z,77.93
2022-12-10T18:23:54.685Z,77.90
2022-12-10T18:25:26.941Z,78.09
2022-12-10T18:26:59.273Z,78.49
2022-12-10T18:28:30.821Z,78.47
2022-12-10T18:30:02.628Z,78.54
2022-12-10T18:31:36.284Z,79.15
2022-12-10T18:33:14.091Z,79.04
2022-12-10T18:34:45.775Z,78.55
2022-12-10T18:36:26.007Z,78.56
2022-12-10T18:37:57.730Z,77.85
2022-12-10T18:39:32.416Z,78.03
2022-12-10T18:41:03.979Z,78.84
2022-12-10T18:42:35.569Z,79.15
2022-12-10T18:44:07.185Z,78.32
2022-12-10T18:45:38.865Z,77.93
2022-12-10T18:47:12.780Z,77.79
2022-12-10T18:48:44.823Z,78.08
2022-12-10T18:50:25.959Z,78.66
2022-12-10T18:51:57.544Z,78.64
2022-12-10T18:53:29.173Z,78.14
2022-12-10T18:55:00.768Z,77.65
2022-12-10T18:56:34.217Z,77.55
2022-12-10T18:58:07.195Z,77.76
2022-12-10T18:59:39.219Z,77.90
2022-12-10T19:01:13.524Z,77.90
2022-12-10T19:02:46.350Z,78.29
2022-12-10T19:04:17.987Z,78.15
2022-12-10T19:05:49.551Z,77.45
2022-12-10T19:07:21.114Z,78.05
2022-12-10T19:10:46.587Z,78.44
2022-12-10T19:12:18.283Z,78.14
2022-12-10T19:13:50.625Z,78.01
2022-12-10T19:15:22.666Z,77.56
2022-12-10T19:16:54.252Z,78.02
2022-12-10T19:18:25.841Z,78.25
2022-12-10T19:19:57.410Z,78.33
2022-12-10T19:21:29.785Z,78.57
2022-12-10T19:23:01.520Z,78.37
2022-12-10T19:24:33.079Z,78.48
2022-12-10T19:26:14.153Z,78.80
2022-12-10T19:27:45.824Z,78.74
2022-12-10T19:29:20.181Z,79.19
2022-12-10T19:30:51.956Z,78.99
2022-12-10T19:32:23.576Z,78.31
2022-12-10T19:33:55.437Z,78.76
2022-12-10T19:35:27.995Z,78.70
2022-12-10T19:36:59.884Z,79.26
2022-12-10T19:38:31.603Z,78.91
2022-12-10T19:40:04.456Z,78.71
2022-12-10T19:41:36.076Z,78.54
2022-12-10T19:43:11.610Z,78.49
2022-12-10T19:44:45.680Z,78.75
2022-12-10T19:46:25.808Z,78.84
2022-12-10T19:47:58.028Z,78.79
2022-12-10T19:49:29.813Z,79.37
2022-12-10T19:51:01.481Z,79.22
2022-12-10T19:52:33.159Z,79.98
2022-12-10T19:54:04.835Z,79.29
2022-12-10T19:55:36.530Z,78.75
2022-12-10T19:57:12.571Z,79.79
2022-12-10T19:58:44.276Z,79.80
2022-12-10T20:00:21.628Z,79.23
2022-12-10T20:01:53.317Z,79.82
2022-12-10T20:03:24.981Z,79.90
2022-12-10T20:04:56.847Z,80.40
2022-12-10T20:06:34.393Z,79.76
2022-12-10T20:08:06.725Z,79.94
2022-12-10T20:09:38.384Z,79.19
2022-12-10T20:11:10.024Z,79.97
2022-12-10T20:12:41.692Z,79.73
2022-12-10T20:14:13.373Z,79.81
2022-12-10T20:15:49.844Z,80.01
2022-12-10T20:17:24.851Z,80.23
2022-12-10T20:18:57.910Z,80.25
2022-12-10T20:20:30.005Z,80.10
2022-12-10T20:22:02.363Z,80.18
2022-12-10T20:23:34.340Z,79.85
2022-12-10T20:25:06.065Z,80.02
2022-12-10T20:26:43.447Z,80.00
2022-12-10T20:28:15.902Z,80.06
2022-12-10T20:29:47.585Z,79.83
2022-12-10T20:31:19.266Z,80.21
2022-12-10T20:32:54.281Z,80.27
2022-12-10T20:34:26.690Z,79.86
2022-12-10T20:35:59.169Z,80.11
2022-12-10T20:37:30.695Z,80.33
2022-12-10T20:39:02.323Z,80.14
2022-12-10T20:40:34.120Z,79.73
2022-12-10T20:42:05.927Z,80.66
2022-12-10T20:43:37.550Z,80.83